Time;durP1;ratioP1;P1;durP2;ratioP2;P2;SDS_P1;SDS_P2;PMS_P1;PMS_P2;Temp;Humidity;BMP_temperature;BMP_pressure;BME280_temperature;BME280_humidity;BME280_pressure;Samples;Min_cycle;Max_cycle;Signal;HPM_P1;HPM_P2
2023/11/10 00:01:00;;;;;;;1.20;1.20;;;10.20;99.90;;;;;;5085980;28;20222;-68
2023/11/10 00:03:29;;;;;;;1.00;1.00;;;10.20;99.90;;;;;;5086000;28;20733;-69
2023/11/10 00:06:00;;;;;;;1.37;1.00;;;10.20;99.90;;;;;;5085570;28;20254;-69
2023/11/10 00:08:28;;;;;;;1.13;1.03;;;10.20;99.90;;;;;;5085440;28;20227;-69
2023/11/10 00:10:56;;;;;;;2.77;0.90;;;10.20;99.90;;;;;;5085438;28;20215;-69
2023/11/10 00:13:24;;;;;;;1.90;1.00;;;10.20;99.90;;;;;;5085575;28;20244;-68
2023/11/10 00:15:54;;;;;;;1.03;0.93;;;10.20;99.90;;;;;;5085188;28;20236;-68
2023/11/10 00:18:27;;;;;;;1.37;1.27;;;10.20;99.90;;;;;;5085797;28;20433;-68
2023/11/10 00:20:55;;;;;;;2.03;1.40;;;10.20;99.90;;;;;;5085031;28;20290;-68
2023/11/10 00:23:26;;;;;;;1.13;1.13;;;10.20;99.90;;;;;;5085240;28;21093;-68
2023/11/10 00:25:54;;;;;;;2.73;1.30;;;10.20;99.90;;;;;;5085408;28;20852;-69
2023/11/10 00:28:21;;;;;;;1.57;1.23;;;10.10;99.90;;;;;;5085188;28;20552;-66
2023/11/10 00:30:48;;;;;;;1.67;1.10;;;10.20;99.90;;;;;;5084897;28;20321;-66
2023/11/10 00:33:17;;;;;;;1.00;1.00;;;10.20;99.90;;;;;;5084108;28;20278;-66
2023/11/10 00:35:44;;;;;;;0.93;0.83;;;10.20;99.90;;;;;;5084808;28;20313;-66
2023/11/10 00:38:12;;;;;;;1.10;1.10;;;10.10;99.90;;;;;;5084370;28;20298;-66
2023/11/10 00:40:39;;;;;;;1.10;1.10;;;10.10;99.90;;;;;;5084674;28;20207;-66
2023/11/10 00:43:06;;;;;;;2.33;1.17;;;10.10;99.90;;;;;;5084826;28;20679;-66
2023/11/10 00:45:33;;;;;;;1.37;1.17;;;10.10;99.90;;;;;;5084179;28;20687;-66
2023/11/10 00:48:00;;;;;;;1.93;1.10;;;10.10;99.90;;;;;;5084522;28;20329;-66
2023/11/10 00:50:28;;;;;;;1.23;1.13;;;10.10;99.90;;;;;;5084637;28;20206;-66
2023/11/10 00:52:55;;;;;;;4.07;1.10;;;10.00;99.90;;;;;;5084408;28;20213;-65
2023/11/10 00:55:22;;;;;;;1.17;1.10;;;10.00;99.90;;;;;;5084242;28;20229;-66
2023/11/10 00:57:49;;;;;;;1.37;1.23;;;10.00;99.90;;;;;;5084588;28;20213;-65
2023/11/10 01:00:17;;;;;;;1.07;0.93;;;10.00;99.90;;;;;;5084597;28;20221;-66
2023/11/10 01:02:44;;;;;;;1.43;1.13;;;9.90;99.90;;;;;;5084123;28;20215;-66
2023/11/10 01:05:12;;;;;;;1.00;0.90;;;9.90;99.90;;;;;;5084566;28;20238;-66
2023/11/10 01:07:41;;;;;;;1.30;1.00;;;9.90;99.90;;;;;;5084023;28;20261;-66
2023/11/10 01:10:09;;;;;;;1.20;1.10;;;9.90;99.90;;;;;;5084599;28;20550;-66
2023/11/10 01:12:36;;;;;;;1.47;1.00;;;9.90;99.90;;;;;;5084187;28;20210;-66
2023/11/10 01:15:04;;;;;;;1.33;1.10;;;9.90;99.90;;;;;;5084287;28;20226;-66
2023/11/10 01:17:31;;;;;;;4.23;0.90;;;9.90;99.90;;;;;;5084065;28;20345;-66
2023/11/10 01:19:59;;;;;;;1.37;1.27;;;9.90;99.90;;;;;;5084364;28;20634;-66
2023/11/10 01:22:27;;;;;;;0.83;0.83;;;9.90;99.90;;;;;;5084238;28;20213;-66
2023/11/10 01:24:55;;;;;;;1.83;1.07;;;9.90;99.90;;;;;;5083769;28;20226;-66
2023/11/10 01:27:22;;;;;;;1.30;1.20;;;9.90;99.90;;;;;;5083550;28;20213;-66
2023/11/10 01:29:49;;;;;;;0.90;0.90;;;9.90;99.90;;;;;;5084295;28;20206;-66
2023/11/10 01:32:16;;;;;;;0.90;0.90;;;9.90;99.90;;;;;;5084259;28;20217;-67
2023/11/10 01:34:42;;;;;;;2.50;1.00;;;9.90;99.90;;;;;;5084286;28;20629;-67
2023/11/10 01:37:09;;;;;;;1.30;1.20;;;9.80;99.90;;;;;;5084111;28;20230;-67
2023/11/10 01:39:38;;;;;;;1.23;1.13;;;9.80;99.90;;;;;;5084457;28;20288;-67
2023/11/10 01:42:08;;;;;;;1.20;1.20;;;9.80;99.90;;;;;;5084323;28;20203;-67
2023/11/10 01:44:35;;;;;;;0.80;0.80;;;9.80;99.90;;;;;;5085348;28;20206;-67
2023/11/10 01:47:04;;;;;;;0.97;0.83;;;9.80;99.90;;;;;;5088284;28;20203;-67
2023/11/10 01:49:31;;;;;;;1.00;1.00;;;9.80;99.90;;;;;;5088220;28;20219;-67
2023/11/10 01:51:58;;;;;;;0.80;0.80;;;9.80;99.90;;;;;;5088104;28;20321;-67
2023/11/10 01:54:28;;;;;;;1.90;1.23;;;9.80;99.90;;;;;;5087846;28;20634;-67
2023/11/10 01:56:55;;;;;;;2.10;0.83;;;9.80;99.90;;;;;;5088007;28;20317;-67
2023/11/10 01:59:23;;;;;;;1.00;1.00;;;9.80;99.90;;;;;;5087887;28;20252;-67
2023/11/10 02:01:49;;;;;;;0.90;0.90;;;9.70;99.90;;;;;;5087982;28;20297;-67
2023/11/10 02:04:17;;;;;;;3.00;1.10;;;9.70;99.90;;;;;;5087858;28;20301;-68
2023/11/10 02:06:45;;;;;;;1.17;1.00;;;9.70;99.90;;;;;;5087916;28;20270;-67
2023/11/10 02:09:12;;;;;;;1.53;1.00;;;9.70;99.90;;;;;;5087940;28;20319;-67
2023/11/10 02:11:39;;;;;;;1.47;1.17;;;9.70;99.90;;;;;;5087670;28;20290;-67
2023/11/10 02:14:07;;;;;;;1.03;0.93;;;9.70;99.90;;;;;;5087572;28;20688;-67
2023/11/10 02:16:36;;;;;;;1.80;0.87;;;9.70;99.90;;;;;;5087343;28;20964;-67
2023/11/10 02:19:03;;;;;;;1.10;1.00;;;9.70;99.90;;;;;;5087936;28;20202;-67
2023/11/10 02:21:31;;;;;;;3.03;1.20;;;9.70;99.90;;;;;;5087758;28;20294;-67
2023/11/10 02:24:01;;;;;;;1.10;0.80;;;9.60;99.90;;;;;;5087812;28;20198;-67
2023/11/10 02:26:29;;;;;;;1.60;0.77;;;9.70;99.90;;;;;;5087534;28;20686;-67
2023/11/10 02:28:56;;;;;;;2.20;1.03;;;9.70;99.90;;;;;;5087610;28;20207;-67
2023/11/10 02:31:23;;;;;;;1.60;1.10;;;9.60;99.90;;;;;;5087259;28;20199;-67
2023/11/10 02:33:50;;;;;;;1.73;1.00;;;9.60;99.90;;;;;;5087541;28;20675;-67
2023/11/10 02:36:17;;;;;;;1.20;1.10;;;9.60;99.90;;;;;;5087515;28;20317;-67
2023/11/10 02:38:44;;;;;;;2.23;0.83;;;9.60;99.90;;;;;;5087396;28;20211;-67
2023/11/10 02:41:10;;;;;;;1.93;1.80;;;9.60;99.90;;;;;;5086951;28;20407;-66
2023/11/10 02:43:39;;;;;;;2.93;1.07;;;9.50;99.90;;;;;;5087123;28;20310;-66
2023/11/10 02:46:07;;;;;;;2.03;1.20;;;9.50;99.90;;;;;;5087169;28;20301;-67
2023/11/10 02:48:34;;;;;;;2.40;1.33;;;9.50;99.90;;;;;;5087074;28;20203;-67
2023/11/10 02:51:01;;;;;;;2.27;0.87;;;9.50;99.90;;;;;;5086773;28;20738;-66
2023/11/10 02:53:28;;;;;;;3.00;1.17;;;9.60;99.90;;;;;;5087035;28;20289;-66
2023/11/10 02:55:55;;;;;;;1.17;1.03;;;9.50;99.90;;;;;;5086231;28;20301;-66
2023/11/10 02:58:22;;;;;;;1.57;0.90;;;9.50;99.90;;;;;;5085977;28;20201;-66
2023/11/10 03:00:53;;;;;;;1.17;0.90;;;9.50;99.90;;;;;;5086963;28;20202;-66
2023/11/10 03:03:20;;;;;;;3.20;1.40;;;9.50;99.90;;;;;;5086480;28;20201;-67
2023/11/10 03:05:47;;;;;;;1.73;1.00;;;9.50;99.90;;;;;;5086448;28;20693;-66
2023/11/10 03:08:14;;;;;;;2.23;1.00;;;9.50;99.90;;;;;;5086918;28;20323;-66
2023/11/10 03:10:41;;;;;;;1.97;1.30;;;9.50;99.90;;;;;;5090513;28;20301;-66
2023/11/10 03:13:09;;;;;;;3.57;1.10;;;9.50;99.90;;;;;;5086103;28;20198;-67
2023/11/10 03:15:36;;;;;;;1.53;0.87;;;9.50;99.90;;;;;;5086043;28;20214;-67
2023/11/10 03:18:04;;;;;;;2.23;0.90;;;9.50;99.90;;;;;;5086155;28;20775;-66
2023/11/10 03:20:31;;;;;;;1.00;0.90;;;9.50;99.90;;;;;;5086480;28;20241;-67
2023/11/10 03:22:58;;;;;;;3.33;1.10;;;9.40;99.90;;;;;;5087318;28;20279;-66
2023/11/10 03:25:25;;;;;;;0.90;0.90;;;9.40;99.90;;;;;;5086232;28;20302;-66
2023/11/10 03:27:52;;;;;;;2.00;1.30;;;9.40;99.90;;;;;;5086039;28;20207;-67
2023/11/10 03:30:20;;;;;;;1.33;0.73;;;9.30;99.90;;;;;;5086363;28;20284;-66
2023/11/10 03:32:47;;;;;;;2.77;0.90;;;9.30;99.90;;;;;;5085831;28;20965;-66
2023/11/10 03:35:15;;;;;;;1.73;0.80;;;9.30;99.90;;;;;;5086072;28;20350;-66
2023/11/10 03:37:42;;;;;;;3.30;1.30;;;9.30;99.90;;;;;;5085773;28;20305;-66
2023/11/10 03:40:10;;;;;;;1.43;1.10;;;9.30;99.90;;;;;;5085856;28;20664;-66
2023/11/10 03:42:37;;;;;;;4.07;1.20;;;9.30;99.90;;;;;;5085914;28;20268;-66
2023/11/10 03:45:05;;;;;;;2.60;1.30;;;9.30;99.90;;;;;;5085953;28;20207;-67
2023/11/10 03:47:32;;;;;;;1.03;1.00;;;9.30;99.90;;;;;;5085738;28;20235;-66
2023/11/10 03:49:59;;;;;;;1.70;1.20;;;9.30;99.90;;;;;;5085904;28;20221;-66
2023/11/10 03:52:28;;;;;;;1.40;0.90;;;9.30;99.90;;;;;;5085834;28;20303;-67
2023/11/10 03:54:54;;;;;;;1.47;1.03;;;9.30;99.90;;;;;;5085974;28;20309;-66
2023/11/10 03:57:21;;;;;;;0.83;0.80;;;9.40;99.90;;;;;;5085384;28;20237;-66
2023/11/10 03:59:48;;;;;;;2.17;1.00;;;9.30;99.90;;;;;;5085883;28;20232;-66
2023/11/10 04:02:15;;;;;;;0.97;0.77;;;9.40;99.90;;;;;;5085078;28;20206;-67
2023/11/10 04:04:42;;;;;;;3.03;1.27;;;9.40;99.90;;;;;;5085807;28;20285;-67
2023/11/10 04:07:10;;;;;;;1.77;1.10;;;9.30;99.90;;;;;;5085431;28;20238;-67
2023/11/10 04:09:38;;;;;;;2.07;1.00;;;9.40;99.90;;;;;;5084751;28;20215;-67
2023/11/10 04:12:06;;;;;;;2.33;1.20;;;9.40;99.90;;;;;;5085389;28;20213;-68
2023/11/10 04:14:35;;;;;;;2.17;1.00;;;9.40;99.90;;;;;;5085821;28;20284;-67
2023/11/10 04:17:02;;;;;;;2.27;1.30;;;9.40;99.90;;;;;;5082863;28;20308;-68
2023/11/10 04:19:29;;;;;;;1.23;0.90;;;9.40;99.90;;;;;;5063994;28;20286;-66
2023/11/10 04:21:57;;;;;;;2.30;1.27;;;9.40;99.90;;;;;;5063843;28;20207;-66
2023/11/10 04:24:24;;;;;;;1.37;0.90;;;9.40;99.90;;;;;;5063269;28;20228;-66
2023/11/10 04:26:53;;;;;;;1.30;0.83;;;9.40;99.90;;;;;;5063152;28;20308;-66
2023/11/10 04:29:20;;;;;;;3.37;1.10;;;9.50;99.90;;;;;;5063297;28;20207;-66
2023/11/10 04:31:47;;;;;;;1.27;0.77;;;9.40;99.90;;;;;;5063228;28;20204;-66
2023/11/10 04:34:14;;;;;;;2.00;0.97;;;9.50;99.90;;;;;;5062958;28;20207;-66
2023/11/10 04:36:43;;;;;;;4.00;0.97;;;9.50;99.90;;;;;;5062807;28;20263;-66
2023/11/10 04:39:10;;;;;;;1.73;1.10;;;9.50;99.90;;;;;;5073500;28;20199;-66
2023/11/10 04:41:38;;;;;;;1.47;1.17;;;9.50;99.90;;;;;;5082961;28;20290;-66
2023/11/10 04:44:08;;;;;;;1.10;0.80;;;9.50;99.90;;;;;;5083554;28;20210;-66
2023/11/10 04:46:39;;;;;;;1.60;1.10;;;9.50;99.90;;;;;;5083151;28;20669;-66
2023/11/10 04:49:07;;;;;;;0.80;0.80;;;9.50;99.90;;;;;;5082930;28;20280;-66
2023/11/10 04:51:33;;;;;;;0.97;0.93;;;9.50;99.90;;;;;;5083414;28;20210;-66
2023/11/10 04:54:01;;;;;;;0.77;0.77;;;9.50;99.90;;;;;;5082882;28;20333;-66
2023/11/10 04:56:28;;;;;;;1.10;1.00;;;9.50;99.90;;;;;;5082729;28;20211;-66
2023/11/10 04:58:54;;;;;;;0.93;0.93;;;9.50;99.90;;;;;;5083122;28;20278;-66
2023/11/10 05:01:23;;;;;;;1.13;0.97;;;9.50;99.90;;;;;;5083359;28;20746;-66
2023/11/10 05:03:50;;;;;;;2.77;0.97;;;9.50;99.90;;;;;;5084283;28;20969;-65
2023/11/10 05:06:17;;;;;;;4.63;1.30;;;9.50;99.90;;;;;;5075271;28;20203;-66
2023/11/10 05:08:44;;;;;;;1.93;1.40;;;9.50;99.90;;;;;;5083904;28;20207;-66
2023/11/10 05:11:11;;;;;;;1.20;1.00;;;9.50;99.90;;;;;;5084167;28;20298;-66
2023/11/10 05:13:39;;;;;;;2.77;1.27;;;9.40;99.90;;;;;;5084029;28;20199;-66
2023/11/10 05:16:07;;;;;;;1.93;1.00;;;9.50;99.90;;;;;;5075519;28;20575;-66
2023/11/10 05:18:35;;;;;;;2.00;1.10;;;9.40;99.90;;;;;;5073084;28;20235;-66
2023/11/10 05:21:02;;;;;;;0.93;0.83;;;9.40;99.90;;;;;;5083495;28;20223;-66
2023/11/10 05:23:29;;;;;;;3.40;1.30;;;9.40;99.90;;;;;;5072651;28;20234;-66
2023/11/10 05:25:56;;;;;;;1.77;0.83;;;9.50;99.90;;;;;;5074786;28;20286;-66
2023/11/10 05:28:23;;;;;;;1.33;1.13;;;9.50;99.90;;;;;;5072179;28;20199;-66
2023/11/10 05:31:00;;;;;;;3.53;1.20;;;9.40;99.90;;;;;;5078357;28;20205;-66
2023/11/10 05:33:27;;;;;;;1.03;1.03;;;9.40;99.90;;;;;;5072014;28;20210;-66
2023/11/10 05:35:56;;;;;;;1.33;1.00;;;9.40;99.90;;;;;;5081266;28;20292;-66
2023/11/10 05:38:23;;;;;;;2.17;1.10;;;9.40;99.90;;;;;;5081002;28;20231;-66
2023/11/10 05:40:50;;;;;;;0.90;0.90;;;9.40;99.90;;;;;;5084136;28;20209;-66
2023/11/10 05:43:16;;;;;;;1.10;1.00;;;9.50;99.90;;;;;;5083632;28;20661;-66
2023/11/10 05:45:43;;;;;;;2.53;1.83;;;9.40;99.90;;;;;;5084013;28;20202;-66
2023/11/10 05:48:11;;;;;;;2.80;1.27;;;9.40;99.90;;;;;;5075258;28;20206;-66
2023/11/10 05:50:38;;;;;;;2.37;1.07;;;9.40;99.90;;;;;;5072377;28;20755;-66
2023/11/10 05:53:07;;;;;;;0.90;0.90;;;9.40;99.90;;;;;;5079885;28;20205;-66
2023/11/10 05:55:34;;;;;;;1.87;1.20;;;9.40;99.90;;;;;;5081605;28;20598;-66
2023/11/10 05:58:01;;;;;;;2.10;1.00;;;9.40;99.90;;;;;;5076378;28;20333;-66
2023/11/10 06:00:28;;;;;;;1.27;0.83;;;9.40;99.90;;;;;;5081242;28;20293;-66
2023/11/10 06:02:56;;;;;;;1.07;0.90;;;9.40;99.90;;;;;;5081648;28;20206;-66
2023/11/10 06:05:24;;;;;;;1.60;1.13;;;9.30;99.90;;;;;;5079073;28;20203;-66
2023/11/10 06:07:54;;;;;;;1.60;0.90;;;9.30;99.90;;;;;;5077479;28;20238;-65
2023/11/10 06:10:23;;;;;;;2.00;0.87;;;9.30;99.90;;;;;;5083735;28;20583;-66
2023/11/10 06:12:51;;;;;;;2.27;0.90;;;9.30;99.90;;;;;;5084031;28;20259;-66
2023/11/10 06:15:19;;;;;;;0.80;0.80;;;9.30;99.90;;;;;;5082811;28;20201;-66
2023/11/10 06:17:46;;;;;;;1.43;1.30;;;9.30;99.90;;;;;;5084023;28;20223;-66
2023/11/10 06:20:13;;;;;;;2.10;1.00;;;9.30;99.90;;;;;;5063234;28;20333;-66
2023/11/10 06:22:40;;;;;;;0.90;0.90;;;9.20;99.90;;;;;;5079185;28;20209;-66
2023/11/10 06:25:08;;;;;;;2.83;1.10;;;9.20;99.90;;;;;;5083651;28;20318;-66
2023/11/10 06:27:36;;;;;;;0.87;0.87;;;9.30;99.90;;;;;;5083581;28;20711;-66
2023/11/10 06:30:04;;;;;;;1.30;1.20;;;9.30;99.90;;;;;;5083170;28;20295;-66
2023/11/10 06:32:31;;;;;;;1.67;1.10;;;9.30;99.90;;;;;;5086008;28;20221;-66
2023/11/10 06:34:58;;;;;;;0.93;0.93;;;9.30;99.90;;;;;;5087410;28;20210;-66
2023/11/10 06:37:25;;;;;;;1.13;1.00;;;9.20;99.90;;;;;;5081609;28;20226;-66
2023/11/10 06:39:52;;;;;;;1.63;1.13;;;9.30;99.90;;;;;;5079475;28;20211;-66
2023/11/10 06:42:19;;;;;;;1.03;1.03;;;9.30;99.90;;;;;;5086809;28;20294;-66
2023/11/10 06:44:49;;;;;;;2.47;1.00;;;9.30;99.90;;;;;;5081521;28;20273;-66
2023/11/10 06:47:16;;;;;;;1.03;0.90;;;9.30;99.90;;;;;;5086267;28;20619;-65
2023/11/10 06:49:43;;;;;;;1.03;1.00;;;9.30;99.90;;;;;;5076485;28;20302;-66
2023/11/10 06:52:11;;;;;;;1.40;1.00;;;9.30;99.90;;;;;;5086879;28;20195;-66
2023/11/10 06:54:38;;;;;;;0.93;0.90;;;9.30;99.90;;;;;;5084355;28;20203;-66
2023/11/10 06:57:06;;;;;;;1.17;1.07;;;9.30;99.90;;;;;;5082587;28;20195;-66
2023/11/10 06:59:34;;;;;;;1.23;0.90;;;9.30;99.90;;;;;;5080019;28;20343;-66
2023/11/10 07:02:03;;;;;;;1.47;1.10;;;9.40;99.90;;;;;;5079859;28;20207;-66
2023/11/10 07:04:30;;;;;;;1.67;0.80;;;9.40;99.90;;;;;;5084422;28;20226;-66
2023/11/10 07:06:57;;;;;;;3.03;1.10;;;9.40;99.90;;;;;;5083342;28;20260;-66
2023/11/10 07:09:25;;;;;;;3.37;1.90;;;9.30;99.90;;;;;;5084803;28;20686;-66
2023/11/10 07:11:52;;;;;;;1.87;1.20;;;9.30;99.90;;;;;;5082727;28;20686;-67
2023/11/10 07:14:19;;;;;;;0.90;0.90;;;9.30;99.90;;;;;;5075391;28;20939;-66
2023/11/10 07:16:46;;;;;;;1.60;1.10;;;9.30;99.90;;;;;;5084541;28;20314;-66
2023/11/10 07:19:14;;;;;;;1.00;1.00;;;9.30;99.90;;;;;;5085791;28;20226;-66
2023/11/10 07:21:41;;;;;;;1.10;1.00;;;9.40;99.90;;;;;;5080475;28;20286;-66
2023/11/10 07:24:09;;;;;;;0.80;0.80;;;9.40;99.90;;;;;;5086495;28;20310;-66
2023/11/10 07:26:36;;;;;;;1.00;0.90;;;9.30;99.90;;;;;;5085342;28;20240;-66
2023/11/10 07:29:03;;;;;;;2.00;1.00;;;9.30;99.90;;;;;;5086261;28;20194;-65
2023/11/10 07:31:31;;;;;;;1.33;1.23;;;9.30;99.90;;;;;;5086012;28;20207;-66
2023/11/10 07:33:59;;;;;;;0.93;0.83;;;9.30;99.90;;;;;;5086368;28;20195;-66
2023/11/10 07:36:27;;;;;;;1.13;1.00;;;9.30;99.90;;;;;;5085983;28;20206;-66
2023/11/10 07:38:54;;;;;;;1.87;1.20;;;9.40;99.90;;;;;;5075733;28;20258;-66
2023/11/10 07:41:21;;;;;;;0.90;0.90;;;9.40;99.90;;;;;;5084866;28;20203;-66
2023/11/10 07:43:48;;;;;;;2.27;1.00;;;9.40;99.90;;;;;;5084140;28;20248;-66
2023/11/10 07:46:15;;;;;;;0.80;0.80;;;9.50;99.90;;;;;;5081252;28;20673;-66
2023/11/10 07:48:42;;;;;;;1.57;1.33;;;9.50;99.90;;;;;;5078692;28;20290;-66
2023/11/10 07:51:09;;;;;;;1.57;0.87;;;9.50;99.90;;;;;;5084168;28;20234;-66
2023/11/10 07:53:38;;;;;;;1.23;1.10;;;9.50;99.90;;;;;;5073690;28;20708;-67
2023/11/10 07:56:06;;;;;;;2.23;1.20;;;9.60;99.90;;;;;;5084210;28;20234;-66
2023/11/10 07:58:33;;;;;;;0.80;0.80;;;9.70;99.90;;;;;;5082824;28;20323;-66
2023/11/10 08:00:59;;;;;;;1.33;1.00;;;9.70;99.90;;;;;;5075784;28;20717;-66
2023/11/10 08:03:27;;;;;;;1.53;1.00;;;9.80;99.90;;;;;;5075828;28;20358;-66
2023/11/10 08:05:54;;;;;;;2.10;0.90;;;9.80;99.90;;;;;;5085478;28;20209;-66
2023/11/10 08:08:21;;;;;;;2.03;0.70;;;9.80;99.90;;;;;;5084822;28;20780;-66
2023/11/10 08:10:49;;;;;;;1.00;0.90;;;9.90;99.90;;;;;;5085457;28;20678;-66
2023/11/10 08:13:16;;;;;;;1.23;0.90;;;9.90;99.90;;;;;;5076620;28;20668;-66
2023/11/10 08:15:45;;;;;;;3.03;0.97;;;9.90;99.90;;;;;;5085496;28;20194;-66
2023/11/10 08:18:14;;;;;;;1.80;0.97;;;9.90;99.90;;;;;;5084890;28;21026;-66
2023/11/10 08:20:42;;;;;;;1.60;1.00;;;9.90;99.90;;;;;;5084821;28;20198;-66
2023/11/10 08:23:11;;;;;;;1.93;0.70;;;9.90;99.90;;;;;;5084301;28;20226;-66
2023/11/10 08:25:38;;;;;;;1.13;0.90;;;9.90;99.90;;;;;;5075256;28;20195;-66
2023/11/10 08:28:08;;;;;;;0.70;0.70;;;10.00;99.90;;;;;;5080103;28;20248;-66
2023/11/10 08:30:35;;;;;;;1.30;0.87;;;10.00;99.90;;;;;;5074881;28;20207;-66
2023/11/10 08:33:02;;;;;;;1.70;0.60;;;10.10;99.90;;;;;;5084187;28;20260;-66
2023/11/10 08:35:29;;;;;;;1.57;0.90;;;10.00;99.90;;;;;;5081576;28;20325;-66
2023/11/10 08:37:56;;;;;;;1.43;0.90;;;10.10;99.90;;;;;;5084718;28;20736;-66
2023/11/10 08:40:23;;;;;;;2.37;0.90;;;10.10;99.90;;;;;;5084816;28;20230;-66
2023/11/10 08:42:50;;;;;;;1.13;0.70;;;10.20;99.90;;;;;;5084572;28;20655;-66
2023/11/10 08:45:19;;;;;;;0.60;0.60;;;10.20;99.90;;;;;;5075903;28;20209;-66
2023/11/10 08:47:46;;;;;;;0.87;0.87;;;10.30;99.90;;;;;;5084662;28;20578;-66
2023/11/10 08:50:13;;;;;;;2.57;1.00;;;10.40;99.90;;;;;;5083878;28;20235;-66
2023/11/10 08:52:42;;;;;;;1.27;1.10;;;10.50;99.90;;;;;;5078979;28;20294;-66
2023/11/10 08:55:11;;;;;;;1.50;0.70;;;10.70;99.90;;;;;;5080893;28;20198;-66
2023/11/10 08:57:39;;;;;;;0.97;0.90;;;10.90;99.90;;;;;;5076328;28;20202;-66
2023/11/10 09:00:09;;;;;;;3.60;0.80;;;11.00;99.90;;;;;;5081524;28;20231;-66
2023/11/10 09:02:39;;;;;;;0.50;0.50;;;11.00;99.90;;;;;;5078247;28;20602;-66
2023/11/10 09:05:06;;;;;;;1.03;0.63;;;11.00;99.90;;;;;;5083880;28;20202;-66
2023/11/10 09:07:34;;;;;;;0.97;0.57;;;11.00;99.90;;;;;;5077818;28;20327;-66
2023/11/10 09:10:01;;;;;;;0.90;0.43;;;11.00;99.90;;;;;;5076021;28;20208;-65
2023/11/10 09:12:28;;;;;;;2.07;0.90;;;11.00;99.90;;;;;;5084188;28;20225;-66
2023/11/10 09:14:55;;;;;;;1.33;1.17;;;10.90;99.90;;;;;;5076797;28;20213;-66
2023/11/10 09:17:22;;;;;;;1.20;0.83;;;11.00;99.90;;;;;;5078678;28;20659;-66
2023/11/10 09:19:51;;;;;;;2.27;2.07;;;10.90;99.90;;;;;;5078400;28;20811;-67
2023/11/10 09:22:18;;;;;;;1.53;1.43;;;10.90;99.90;;;;;;5075037;28;20210;-66
2023/11/10 09:24:45;;;;;;;1.60;0.90;;;10.90;99.90;;;;;;5080657;28;20516;-66
2023/11/10 09:27:12;;;;;;;1.20;0.90;;;10.90;99.90;;;;;;5081210;28;20287;-66
2023/11/10 09:29:39;;;;;;;3.03;1.07;;;10.90;99.90;;;;;;5082263;28;20321;-66
2023/11/10 09:32:10;;;;;;;1.07;0.70;;;10.90;99.90;;;;;;5081534;28;20226;-66
2023/11/10 09:34:37;;;;;;;0.83;0.73;;;10.90;99.90;;;;;;5078825;28;20190;-66
2023/11/10 09:37:05;;;;;;;0.80;0.50;;;10.90;99.90;;;;;;5083870;28;20918;-66
2023/11/10 09:39:32;;;;;;;0.80;0.80;;;10.80;99.90;;;;;;5076543;28;20245;-66
2023/11/10 09:42:06;;;;;;;0.80;0.60;;;10.80;99.90;;;;;;5076965;28;20611;-66
2023/11/10 09:44:37;;;;;;;0.87;0.63;;;10.80;99.90;;;;;;5081158;28;20206;-66
2023/11/10 09:47:05;;;;;;;0.80;0.77;;;10.80;99.90;;;;;;5083385;28;20294;-66
2023/11/10 09:49:32;;;;;;;0.70;0.70;;;10.70;99.90;;;;;;5079795;28;20288;-66
2023/11/10 09:52:00;;;;;;;1.70;1.33;;;10.80;99.90;;;;;;5084005;28;20290;-66
2023/11/10 09:54:31;;;;;;;0.53;0.40;;;10.70;99.90;;;;;;5081403;28;20202;-66
2023/11/10 09:56:59;;;;;;;2.03;0.80;;;10.80;99.90;;;;;;5072204;28;20211;-66
2023/11/10 09:59:31;;;;;;;1.07;0.77;;;10.80;99.90;;;;;;5076381;28;20321;-66
2023/11/10 10:02:00;;;;;;;0.97;0.60;;;10.90;99.90;;;;;;5078165;28;20195;-66
2023/11/10 10:04:27;;;;;;;0.83;0.77;;;11.10;99.90;;;;;;5077891;28;20196;-66
2023/11/10 10:06:57;;;;;;;0.90;0.90;;;11.30;99.90;;;;;;5084743;28;20246;-66
2023/11/10 10:09:24;;;;;;;2.37;0.77;;;11.50;99.90;;;;;;5081582;28;20199;-66
2023/11/10 10:11:54;;;;;;;2.43;0.73;;;11.70;99.90;;;;;;5083904;28;20226;-66
2023/11/10 10:14:21;;;;;;;1.60;1.07;;;11.80;99.90;;;;;;5079023;28;20201;-66
2023/11/10 10:16:54;;;;;;;1.47;0.63;;;11.90;99.90;;;;;;5087375;28;20298;-66
2023/11/10 10:19:24;;;;;;;1.27;0.73;;;11.80;99.90;;;;;;5085364;28;20218;-66
2023/11/10 10:21:52;;;;;;;1.23;0.90;;;11.80;99.90;;;;;;5079212;28;20603;-66
2023/11/10 10:24:19;;;;;;;0.80;0.53;;;11.60;99.90;;;;;;5087309;28;20714;-66
2023/11/10 10:26:46;;;;;;;0.80;0.70;;;11.50;99.90;;;;;;5079039;28;20208;-66
2023/11/10 10:29:18;;;;;;;0.57;0.57;;;11.50;99.90;;;;;;5087261;28;20638;-66
2023/11/10 10:31:45;;;;;;;1.30;0.43;;;11.50;99.90;;;;;;5081485;28;20192;-66
2023/11/10 10:34:12;;;;;;;1.80;1.03;;;11.50;99.90;;;;;;5087598;28;20195;-66
2023/11/10 10:36:39;;;;;;;0.97;0.67;;;11.40;99.90;;;;;;5078653;28;20306;-66
2023/11/10 10:39:10;;;;;;;0.50;0.50;;;11.40;99.90;;;;;;5082566;28;20273;-66
2023/11/10 10:41:39;;;;;;;1.23;0.83;;;11.40;99.90;;;;;;5087360;28;20201;-66
2023/11/10 10:44:06;;;;;;;1.60;1.03;;;11.30;99.90;;;;;;5086919;28;20298;-66
2023/11/10 10:46:36;;;;;;;1.13;0.90;;;11.20;99.90;;;;;;5078869;28;20307;-66
2023/11/10 10:49:04;;;;;;;0.43;0.43;;;11.10;99.90;;;;;;5087216;28;20214;-66
2023/11/10 10:51:36;;;;;;;1.00;0.53;;;11.20;99.90;;;;;;5084316;28;20208;-66
2023/11/10 10:54:04;;;;;;;1.50;0.97;;;11.20;99.90;;;;;;5078570;28;20199;-66
2023/11/10 10:56:31;;;;;;;0.73;0.43;;;11.10;99.90;;;;;;5080095;28;20677;-67
2023/11/10 10:58:59;;;;;;;0.40;0.40;;;11.10;99.90;;;;;;5083531;28;20226;-66
2023/11/10 11:01:27;;;;;;;2.17;0.80;;;11.20;99.90;;;;;;5086420;28;20199;-66
2023/11/10 11:04:14;;;;;;;0.50;0.40;;;11.20;99.90;;;;;;5077980;28;20206;-66
2023/11/10 11:06:53;;;;;;;0.40;0.40;;;11.30;99.90;;;;;;5084089;28;20647;-66
2023/11/10 11:09:42;;;;;;;0.57;0.57;;;11.40;99.90;;;;;;5081855;28;20294;-66
2023/11/10 11:12:25;;;;;;;0.60;0.60;;;11.50;99.90;;;;;;5081829;28;20961;-66
2023/11/10 11:14:58;;;;;;;2.13;0.50;;;11.60;99.90;;;;;;5078026;28;20242;-66
2023/11/10 11:17:55;;;;;;;1.37;0.50;;;11.50;99.90;;;;;;5079942;28;20735;-67
2023/11/10 11:20:24;;;;;;;0.53;0.40;;;11.40;99.90;;;;;;5078424;28;20310;-66
2023/11/10 11:22:51;;;;;;;1.87;0.37;;;11.40;99.90;;;;;;5086275;28;20306;-66
2023/11/10 11:25:19;;;;;;;1.33;0.50;;;11.40;99.90;;;;;;5083473;28;20195;-66
2023/11/10 11:27:56;;;;;;;0.70;0.53;;;11.20;99.90;;;;;;5089656;28;20301;-66
2023/11/10 11:30:25;;;;;;;1.53;0.70;;;11.20;99.90;;;;;;5084401;28;20206;-66
2023/11/10 11:32:58;;;;;;;3.00;0.93;;;11.20;99.90;;;;;;5086631;28;20657;-66
2023/11/10 11:35:26;;;;;;;0.93;0.87;;;11.20;99.90;;;;;;5082974;28;20203;-66
2023/11/10 11:37:55;;;;;;;1.43;0.70;;;11.10;99.90;;;;;;5082728;28;20357;-67
2023/11/10 11:40:34;;;;;;;1.13;1.00;;;11.00;99.90;;;;;;5083924;28;20226;-66
2023/11/10 11:43:09;;;;;;;2.10;0.73;;;11.00;99.90;;;;;;5083191;28;20268;-66
2023/11/10 11:45:39;;;;;;;1.47;0.80;;;11.00;99.90;;;;;;5077439;28;20286;-66
2023/11/10 11:48:09;;;;;;;2.67;1.87;;;11.00;99.90;;;;;;5087177;28;20215;-66
2023/11/10 11:50:38;;;;;;;1.27;1.07;;;10.90;99.90;;;;;;5086188;28;20614;-68
2023/11/10 11:53:09;;;;;;;0.60;0.60;;;11.00;99.90;;;;;;5077599;28;20199;-66
2023/11/10 11:55:36;;;;;;;0.50;0.50;;;10.90;99.90;;;;;;5080195;28;20188;-66
2023/11/10 11:58:04;;;;;;;1.00;0.80;;;10.90;99.90;;;;;;5065716;28;20717;-66
2023/11/10 12:00:32;;;;;;;1.43;0.97;;;10.90;99.90;;;;;;5075358;28;20242;-66
2023/11/10 12:02:59;;;;;;;1.47;1.20;;;10.90;99.90;;;;;;5080110;28;20290;-66
2023/11/10 12:05:30;;;;;;;0.83;0.83;;;10.90;99.90;;;;;;5080543;28;20659;-66
2023/11/10 12:07:58;;;;;;;1.90;1.07;;;10.80;99.90;;;;;;5068088;28;20275;-66
2023/11/10 12:10:25;;;;;;;0.90;0.90;;;10.80;99.90;;;;;;5084349;28;20198;-66
2023/11/10 12:12:52;;;;;;;4.03;1.70;;;10.90;99.90;;;;;;5085084;28;20755;-66
2023/11/10 12:15:20;;;;;;;1.70;1.47;;;11.00;99.90;;;;;;5079275;28;20195;-66
2023/11/10 12:17:47;;;;;;;1.27;1.10;;;11.30;99.90;;;;;;5085197;28;20199;-66
2023/11/10 12:20:14;;;;;;;0.50;0.50;;;11.70;99.90;;;;;;5079181;28;20227;-66
2023/11/10 12:22:52;;;;;;;2.10;0.80;;;12.10;99.90;;;;;;5082699;28;20218;-66
2023/11/10 12:25:20;;;;;;;2.70;0.97;;;12.30;99.90;;;;;;5082441;28;20278;-66
2023/11/10 12:27:47;;;;;;;0.77;0.60;;;12.20;99.90;;;;;;5071070;28;20213;-66
2023/11/10 12:30:15;;;;;;;1.30;1.10;;;11.90;99.90;;;;;;5084556;28;20268;-66
2023/11/10 12:32:42;;;;;;;0.83;0.80;;;11.80;99.90;;;;;;5084666;28;20206;-66
2023/11/10 12:35:10;;;;;;;1.03;0.50;;;11.60;99.90;;;;;;5082303;28;20199;-66
2023/11/10 12:37:37;;;;;;;1.23;0.60;;;11.40;99.90;;;;;;5075705;28;20202;-66
2023/11/10 12:40:10;;;;;;;0.70;0.60;;;11.30;99.90;;;;;;5080735;28;20313;-66
2023/11/10 12:42:39;;;;;;;0.50;0.50;;;11.30;99.90;;;;;;5075788;28;20555;-66
2023/11/10 12:45:08;;;;;;;0.63;0.50;;;11.20;99.90;;;;;;5081634;28;20302;-66
2023/11/10 12:47:38;;;;;;;1.33;0.60;;;11.20;99.90;;;;;;5084466;28;20234;-66
2023/11/10 12:50:10;;;;;;;1.47;0.40;;;11.20;99.90;;;;;;5079061;28;20616;-66
2023/11/10 12:52:38;;;;;;;3.27;2.97;;;11.30;99.90;;;;;;5085109;28;20230;-66
2023/11/10 12:55:08;;;;;;;1.00;1.00;;;11.30;99.90;;;;;;5084495;28;20237;-66
2023/11/10 12:57:35;;;;;;;1.83;1.67;;;11.30;99.90;;;;;;5084639;28;20669;-67